sensor_id;sensor_type;location;lat;lon;timestamp;temperature;humidity
18797;DHT22;9526;52.612;13.300;2022-10-03T00:01:09;10.80;99.90
18797;DHT22;9526;52.612;13.300;2022-10-03T00:04:08;10.80;99.90
18797;DHT22;9526;52.612;13.300;2022-10-03T00:06:46;10.90;99.90
18797;DHT22;9526;52.612;13.300;2022-10-03T00:09:29;10.90;99.90
18797;DHT22;9526;52.612;13.300;2022-10-03T00:12:11;11.00;99.90
18797;DHT22;9526;52.612;13.300;2022-10-03T00:14:43;11.00;99.90
18797;DHT22;9526;52.612;13.300;2022-10-03T00:17:17;11.00;99.90
18797;DHT22;9526;52.612;13.300;2022-10-03T00:19:52;11.00;99.90
18797;DHT22;9526;52.612;13.300;2022-10-03T00:22:31;11.10;99.90
18797;DHT22;9526;52.612;13.300;2022-10-03T00:27:54;11.10;99.90
18797;DHT22;9526;52.612;13.300;2022-10-03T00:30:49;11.10;99.90
18797;DHT22;9526;52.612;13.300;2022-10-03T00:33:24;11.20;99.90
18797;DHT22;9526;52.612;13.300;2022-10-03T00:36:00;11.20;99.90
18797;DHT22;9526;52.612;13.300;2022-10-03T00:38:48;11.20;99.90
18797;DHT22;9526;52.612;13.300;2022-10-03T00:41:39;11.20;99.90
18797;DHT22;9526;52.612;13.300;2022-10-03T00:45:19;11.10;99.90
18797;DHT22;9526;52.612;13.300;2022-10-03T00:51:33;11.10;99.90
18797;DHT22;9526;52.612;13.300;2022-10-03T00:57:15;11.10;99.90
18797;DHT22;9526;52.612;13.300;2022-10-03T01:00:02;11.10;99.90
18797;DHT22;9526;52.612;13.300;2022-10-03T01:02:47;11.10;99.90
18797;DHT22;9526;52.612;13.300;2022-10-03T01:05:28;11.10;99.90
18797;DHT22;9526;52.612;13.300;2022-10-03T01:08:08;11.10;99.90
18797;DHT22;9526;52.612;13.300;2022-10-03T01:10:57;11.10;99.90
18797;DHT22;9526;52.612;13.300;2022-10-03T01:13:36;11.10;99.90
18797;DHT22;9526;52.612;13.300;2022-10-03T01:16:14;11.10;99.90
18797;DHT22;9526;52.612;13.300;2022-10-03T01:18:52;11.10;99.90
18797;DHT22;9526;52.612;13.300;2022-10-03T01:21:32;11.20;99.90
18797;DHT22;9526;52.612;13.300;2022-10-03T01:24:42;11.20;99.90
18797;DHT22;9526;52.612;13.300;2022-10-03T01:27:16;11.30;99.90
18797;DHT22;9526;52.612;13.300;2022-10-03T01:29:52;11.30;99.90
18797;DHT22;9526;52.612;13.300;2022-10-03T01:32:42;11.30;99.90
18797;DHT22;9526;52.612;13.300;2022-10-03T01:35:19;11.40;99.90
18797;DHT22;9526;52.612;13.300;2022-10-03T01:37:53;11.40;99.90
18797;DHT22;9526;52.612;13.300;2022-10-03T01:40:29;11.40;99.90
18797;DHT22;9526;52.612;13.300;2022-10-03T01:43:02;11.50;99.90
18797;DHT22;9526;52.612;13.300;2022-10-03T01:48:30;11.50;99.90
18797;DHT22;9526;52.612;13.300;2022-10-03T01:51:02;11.60;99.90
18797;DHT22;9526;52.612;13.300;2022-10-03T01:53:39;11.60;99.90
18797;DHT22;9526;52.612;13.300;2022-10-03T01:56:16;11.60;99.90
18797;DHT22;9526;52.612;13.300;2022-10-03T01:58:51;11.60;99.90
18797;DHT22;9526;52.612;13.300;2022-10-03T02:01:25;11.60;99.90
18797;DHT22;9526;52.612;13.300;2022-10-03T02:03:59;11.60;99.90
18797;DHT22;9526;52.612;13.300;2022-10-03T02:06:34;11.70;99.90
18797;DHT22;9526;52.612;13.300;2022-10-03T02:09:10;11.70;99.90
18797;DHT22;9526;52.612;13.300;2022-10-03T02:11:59;11.70;99.90
18797;DHT22;9526;52.612;13.300;2022-10-03T02:14:31;11.70;99.90
18797;DHT22;9526;52.612;13.300;2022-10-03T02:17:05;11.70;99.90
18797;DHT22;9526;52.612;13.300;2022-10-03T02:19:40;11.70;99.90
18797;DHT22;9526;52.612;13.300;2022-10-03T02:22:13;11.70;99.90
18797;DHT22;9526;52.612;13.300;2022-10-03T02:24:45;11.80;99.90
18797;DHT22;9526;52.612;13.300;2022-10-03T02:27:47;11.80;99.90
18797;DHT22;9526;52.612;13.300;2022-10-03T02:30:26;11.80;99.90
18797;DHT22;9526;52.612;13.300;2022-10-03T02:39:54;11.80;99.90
18797;DHT22;9526;52.612;13.300;2022-10-03T02:42:58;11.80;99.90
18797;DHT22;9526;52.612;13.300;2022-10-03T02:46:06;11.80;99.90
18797;DHT22;9526;52.612;13.300;2022-10-03T02:55:45;11.80;99.90
18797;DHT22;9526;52.612;13.300;2022-10-03T03:01:58;11.90;99.90
18797;DHT22;9526;52.612;13.300;2022-10-03T03:11:08;11.90;99.90
18797;DHT22;9526;52.612;13.300;2022-10-03T03:14:20;11.90;99.90
18797;DHT22;9526;52.612;13.300;2022-10-03T03:17:23;11.90;99.90
18797;DHT22;9526;52.612;13.300;2022-10-03T03:20:08;11.90;99.90
18797;DHT22;9526;52.612;13.300;2022-10-03T03:23:08;11.90;99.90
18797;DHT22;9526;52.612;13.300;2022-10-03T03:25:48;11.90;99.90
18797;DHT22;9526;52.612;13.300;2022-10-03T03:28:28;11.90;99.90
18797;DHT22;9526;52.612;13.300;2022-10-03T03:31:07;11.90;99.90
18797;DHT22;9526;52.612;13.300;2022-10-03T03:33:41;11.80;99.90
18797;DHT22;9526;52.612;13.300;2022-10-03T03:36:21;11.90;99.90
18797;DHT22;9526;52.612;13.300;2022-10-03T03:38:56;11.80;99.90
18797;DHT22;9526;52.612;13.300;2022-10-03T03:41:41;11.80;99.90
18797;DHT22;9526;52.612;13.300;2022-10-03T03:44:28;11.90;99.90
18797;DHT22;9526;52.612;13.300;2022-10-03T03:47:25;11.90;99.90
18797;DHT22;9526;52.612;13.300;2022-10-03T03:50:21;11.90;99.90
18797;DHT22;9526;52.612;13.300;2022-10-03T03:53:01;11.90;99.90
18797;DHT22;9526;52.612;13.300;2022-10-03T03:55:51;11.90;99.90
18797;DHT22;9526;52.612;13.300;2022-10-03T03:58:32;11.80;99.90
18797;DHT22;9526;52.612;13.300;2022-10-03T04:01:14;11.90;99.90
18797;DHT22;9526;52.612;13.300;2022-10-03T04:03:52;11.90;99.90
18797;DHT22;9526;52.612;13.300;2022-10-03T04:06:43;11.90;99.90
18797;DHT22;9526;52.612;13.300;2022-10-03T04:09:30;11.90;99.90
18797;DHT22;9526;52.612;13.300;2022-10-03T04:12:25;11.90;99.90
18797;DHT22;9526;52.612;13.300;2022-10-03T04:15:06;11.90;99.90
18797;DHT22;9526;52.612;13.300;2022-10-03T04:17:52;11.90;99.90
18797;DHT22;9526;52.612;13.300;2022-10-03T04:21:00;11.90;99.90
18797;DHT22;9526;52.612;13.300;2022-10-03T04:24:17;11.90;99.90
18797;DHT22;9526;52.612;13.300;2022-10-03T04:26:56;11.90;99.90
18797;DHT22;9526;52.612;13.300;2022-10-03T04:29:47;11.90;99.90
18797;DHT22;9526;52.612;13.300;2022-10-03T04:32:33;11.90;99.90
18797;DHT22;9526;52.612;13.300;2022-10-03T04:35:20;12.00;99.90
18797;DHT22;9526;52.612;13.300;2022-10-03T04:37:56;11.90;99.90
18797;DHT22;9526;52.612;13.300;2022-10-03T04:40:40;12.00;99.90
18797;DHT22;9526;52.612;13.300;2022-10-03T04:43:13;12.00;99.90
18797;DHT22;9526;52.612;13.300;2022-10-03T04:45:55;12.00;99.90
18797;DHT22;9526;52.612;13.300;2022-10-03T04:48:38;11.90;99.90
18797;DHT22;9526;52.612;13.300;2022-10-03T04:51:11;11.90;99.90
18797;DHT22;9526;52.612;13.300;2022-10-03T04:53:48;11.90;99.90
18797;DHT22;9526;52.612;13.300;2022-10-03T04:56:34;11.90;99.90
18797;DHT22;9526;52.612;13.300;2022-10-03T04:59:21;11.80;99.90
18797;DHT22;9526;52.612;13.300;2022-10-03T05:02:02;11.90;99.90
18797;DHT22;9526;52.612;13.300;2022-10-03T05:04:39;11.80;99.90
18797;DHT22;9526;52.612;13.300;2022-10-03T05:07:12;11.90;99.90
18797;DHT22;9526;52.612;13.300;2022-10-03T05:09:44;11.90;99.90
18797;DHT22;9526;52.612;13.300;2022-10-03T05:12:18;11.90;99.90
18797;DHT22;9526;52.612;13.300;2022-10-03T05:15:11;11.90;99.90
18797;DHT22;9526;52.612;13.300;2022-10-03T05:17:51;11.90;99.90
18797;DHT22;9526;52.612;13.300;2022-10-03T05:20:31;11.90;99.90
18797;DHT22;9526;52.612;13.300;2022-10-03T05:23:11;11.90;99.90
18797;DHT22;9526;52.612;13.300;2022-10-03T05:25:48;11.90;99.90
18797;DHT22;9526;52.612;13.300;2022-10-03T05:28:44;11.90;99.90
18797;DHT22;9526;52.612;13.300;2022-10-03T05:31:27;11.90;99.90
18797;DHT22;9526;52.612;13.300;2022-10-03T05:34:02;11.90;99.90
18797;DHT22;9526;52.612;13.300;2022-10-03T05:36:46;11.90;99.90
18797;DHT22;9526;52.612;13.300;2022-10-03T05:39:28;11.90;99.90
18797;DHT22;9526;52.612;13.300;2022-10-03T05:42:10;11.90;99.90
18797;DHT22;9526;52.612;13.300;2022-10-03T05:44:53;11.90;99.90
18797;DHT22;9526;52.612;13.300;2022-10-03T05:47:27;11.90;99.90
18797;DHT22;9526;52.612;13.300;2022-10-03T05:50:32;11.90;99.90
18797;DHT22;9526;52.612;13.300;2022-10-03T05:53:17;12.00;99.90
18797;DHT22;9526;52.612;13.300;2022-10-03T05:56:00;12.00;99.90
18797;DHT22;9526;52.612;13.300;2022-10-03T05:58:39;12.00;99.90
18797;DHT22;9526;52.612;13.300;2022-10-03T06:05:03;12.00;99.90
18797;DHT22;9526;52.612;13.300;2022-10-03T06:07:47;12.10;99.90
18797;DHT22;9526;52.612;13.300;2022-10-03T06:10:43;12.10;99.90
18797;DHT22;9526;52.612;13.300;2022-10-03T06:13:18;12.00;99.90
18797;DHT22;9526;52.612;13.300;2022-10-03T06:15:56;12.10;99.90
18797;DHT22;9526;52.612;13.300;2022-10-03T06:18:50;12.10;99.90
18797;DHT22;9526;52.612;13.300;2022-10-03T06:31:48;12.20;99.90
18797;DHT22;9526;52.612;13.300;2022-10-03T06:34:41;12.30;99.90
18797;DHT22;9526;52.612;13.300;2022-10-03T06:38:08;12.30;99.90
18797;DHT22;9526;52.612;13.300;2022-10-03T06:41:12;12.30;99.90
18797;DHT22;9526;52.612;13.300;2022-10-03T06:44:27;12.40;99.90
18797;DHT22;9526;52.612;13.300;2022-10-03T06:47:11;12.40;99.90
18797;DHT22;9526;52.612;13.300;2022-10-03T06:53:19;12.50;99.90
18797;DHT22;9526;52.612;13.300;2022-10-03T06:56:17;12.60;99.90
18797;DHT22;9526;52.612;13.300;2022-10-03T06:59:17;12.60;99.90
18797;DHT22;9526;52.612;13.300;2022-10-03T07:02:20;12.60;99.90
18797;DHT22;9526;52.612;13.300;2022-10-03T07:05:33;12.80;99.90
18797;DHT22;9526;52.612;13.300;2022-10-03T07:12:12;12.90;99.90
18797;DHT22;9526;52.612;13.300;2022-10-03T07:15:24;13.00;99.90
18797;DHT22;9526;52.612;13.300;2022-10-03T07:28:02;13.20;99.90
18797;DHT22;9526;52.612;13.300;2022-10-03T07:30:50;13.20;99.90
18797;DHT22;9526;52.612;13.300;2022-10-03T07:36:54;13.30;99.90
18797;DHT22;9526;52.612;13.300;2022-10-03T07:40:17;13.40;99.90
18797;DHT22;9526;52.612;13.300;2022-10-03T07:43:20;13.40;99.90
18797;DHT22;9526;52.612;13.300;2022-10-03T07:49:30;13.40;99.90
18797;DHT22;9526;52.612;13.300;2022-10-03T07:52:42;13.40;99.90
18797;DHT22;9526;52.612;13.300;2022-10-03T07:55:44;13.50;99.90
18797;DHT22;9526;52.612;13.300;2022-10-03T07:58:36;13.50;99.90
18797;DHT22;9526;52.612;13.300;2022-10-03T08:01:27;13.60;99.90
18797;DHT22;9526;52.612;13.300;2022-10-03T08:07:30;13.60;99.90
18797;DHT22;9526;52.612;13.300;2022-10-03T08:10:37;13.60;99.90
18797;DHT22;9526;52.612;13.300;2022-10-03T08:13:25;13.70;99.90
18797;DHT22;9526;52.612;13.300;2022-10-03T08:16:06;13.90;99.90
18797;DHT22;9526;52.612;13.300;2022-10-03T08:21:54;14.00;99.90
18797;DHT22;9526;52.612;13.300;2022-10-03T08:24:48;14.00;99.90
18797;DHT22;9526;52.612;13.300;2022-10-03T08:30:24;14.10;99.90
18797;DHT22;9526;52.612;13.300;2022-10-03T08:33:27;14.10;99.90
18797;DHT22;9526;52.612;13.300;2022-10-03T08:39:40;14.30;99.90
18797;DHT22;9526;52.612;13.300;2022-10-03T08:42:57;14.30;99.90
18797;DHT22;9526;52.612;13.300;2022-10-03T08:49:04;14.30;
18797;DHT22;9526;52.612;13.300;2022-10-03T08:52:12;14.40;99.90
18797;DHT22;9526;52.612;13.300;2022-10-03T08:58:07;14.50;99.90
18797;DHT22;9526;52.612;13.300;2022-10-03T09:00:58;14.50;99.90
18797;DHT22;9526;52.612;13.300;2022-10-03T09:07:21;14.70;99.90
18797;DHT22;9526;52.612;13.300;2022-10-03T09:13:36;14.80;99.90
18797;DHT22;9526;52.612;13.300;2022-10-03T09:16:46;14.80;99.90
18797;DHT22;9526;52.612;13.300;2022-10-03T09:22:56;15.30;99.90
18797;DHT22;9526;52.612;13.300;2022-10-03T09:25:39;15.60;99.90
18797;DHT22;9526;52.612;13.300;2022-10-03T09:28:42;15.70;99.90
18797;DHT22;9526;52.612;13.300;2022-10-03T09:31:39;15.90;99.90
18797;DHT22;9526;52.612;13.300;2022-10-03T09:34:55;15.90;99.90
18797;DHT22;9526;52.612;13.300;2022-10-03T09:47:54;16.10;99.90
18797;DHT22;9526;52.612;13.300;2022-10-03T09:54:04;15.80;99.90
18797;DHT22;9526;52.612;13.300;2022-10-03T09:57:11;15.70;99.90
18797;DHT22;9526;52.612;13.300;2022-10-03T10:00:12;15.80;99.90
18797;DHT22;9526;52.612;13.300;2022-10-03T10:03:21;15.60;99.90
18797;DHT22;9526;52.612;13.300;2022-10-03T10:06:33;15.50;99.90
18797;DHT22;9526;52.612;13.300;2022-10-03T10:09:35;15.50;99.90
18797;DHT22;9526;52.612;13.300;2022-10-03T10:15:58;15.90;99.90
18797;DHT22;9526;52.612;13.300;2022-10-03T10:22:05;16.00;99.90
18797;DHT22;9526;52.612;13.300;2022-10-03T10:25:06;16.10;99.90
18797;DHT22;9526;52.612;13.300;2022-10-03T10:28:27;16.10;99.90
18797;DHT22;9526;52.612;13.300;2022-10-03T10:51:30;17.00;99.90
18797;DHT22;9526;52.612;13.300;2022-10-03T11:01:50;16.90;99.90
18797;DHT22;9526;52.612;13.300;2022-10-03T11:05:03;17.10;99.90
18797;DHT22;9526;52.612;13.300;2022-10-03T11:08:28;16.90;99.90
18797;DHT22;9526;52.612;13.300;2022-10-03T11:18:17;17.00;99.90
18797;DHT22;9526;52.612;13.300;2022-10-03T11:24:56;17.10;99.90
18797;DHT22;9526;52.612;13.300;2022-10-03T11:31:13;16.90;99.90
18797;DHT22;9526;52.612;13.300;2022-10-03T11:37:41;16.60;99.90
18797;DHT22;9526;52.612;13.300;2022-10-03T11:40:26;16.60;99.90
18797;DHT22;9526;52.612;13.300;2022-10-03T11:43:03;16.50;99.90
18797;DHT22;9526;52.612;13.300;2022-10-03T11:45:45;16.40;99.90
18797;DHT22;9526;52.612;13.300;2022-10-03T11:48:24;16.40;99.90
18797;DHT22;9526;52.612;13.300;2022-10-03T11:50:58;16.50;99.90
18797;DHT22;9526;52.612;13.300;2022-10-03T11:53:36;16.50;99.90
18797;DHT22;9526;52.612;13.300;2022-10-03T11:56:24;16.40;99.90
18797;DHT22;9526;52.612;13.300;2022-10-03T11:59:04;16.40;99.90
18797;DHT22;9526;52.612;13.300;2022-10-03T12:01:49;16.40;99.90
18797;DHT22;9526;52.612;13.300;2022-10-03T12:04:27;16.50;99.90
18797;DHT22;9526;52.612;13.300;2022-10-03T12:06:58;16.50;99.90
18797;DHT22;9526;52.612;13.300;2022-10-03T12:09:47;16.50;99.90
18797;DHT22;9526;52.612;13.300;2022-10-03T12:12:27;16.70;99.90
18797;DHT22;9526;52.612;13.300;2022-10-03T12:14:59;16.80;99.90
18797;DHT22;9526;52.612;13.300;2022-10-03T12:17:31;16.80;99.90
18797;DHT22;9526;52.612;13.300;2022-10-03T12:20:01;16.90;99.90
18797;DHT22;9526;52.612;13.300;2022-10-03T12:22:40;16.90;99.90
18797;DHT22;9526;52.612;13.300;2022-10-03T12:25:19;17.10;99.90
18797;DHT22;9526;52.612;13.300;2022-10-03T12:27:54;17.00;99.90
18797;DHT22;9526;52.612;13.300;2022-10-03T12:30:21;17.10;99.90
18797;DHT22;9526;52.612;13.300;2022-10-03T12:32:56;17.10;99.90
18797;DHT22;9526;52.612;13.300;2022-10-03T12:35:38;17.10;99.90
18797;DHT22;9526;52.612;13.300;2022-10-03T12:38:22;17.10;99.90
18797;DHT22;9526;52.612;13.300;2022-10-03T12:40:58;16.90;99.90
18797;DHT22;9526;52.612;13.300;2022-10-03T12:43:37;17.00;99.90
18797;DHT22;9526;52.612;13.300;2022-10-03T12:46:13;17.10;99.90
18797;DHT22;9526;52.612;13.300;2022-10-03T12:48:44;17.20;99.90
18797;DHT22;9526;52.612;13.300;2022-10-03T12:51:18;17.00;99.90
18797;DHT22;9526;52.612;13.300;2022-10-03T12:53:56;17.00;99.90
18797;DHT22;9526;52.612;13.300;2022-10-03T12:56:37;17.00;99.90
18797;DHT22;9526;52.612;13.300;2022-10-03T12:59:27;17.00;99.90
18797;DHT22;9526;52.612;13.300;2022-10-03T13:02:10;17.20;99.90
18797;DHT22;9526;52.612;13.300;2022-10-03T13:04:57;17.10;99.90
18797;DHT22;9526;52.612;13.300;2022-10-03T13:07:39;17.30;99.90
18797;DHT22;9526;52.612;13.300;2022-10-03T13:10:16;17.20;99.90
18797;DHT22;9526;52.612;13.300;2022-10-03T13:12:48;17.20;99.90
18797;DHT22;9526;52.612;13.300;2022-10-03T13:15:42;17.30;99.90
18797;DHT22;9526;52.612;13.300;2022-10-03T13:18:28;17.30;99.90
18797;DHT22;9526;52.612;13.300;2022-10-03T13:21:04;17.30;99.90
18797;DHT22;9526;52.612;13.300;2022-10-03T13:23:52;17.10;99.90
18797;DHT22;9526;52.612;13.300;2022-10-03T13:26:21;17.00;99.90
18797;DHT22;9526;52.612;13.300;2022-10-03T13:29:06;17.10;99.90
18797;DHT22;9526;52.612;13.300;2022-10-03T13:31:43;17.10;99.90
18797;DHT22;9526;52.612;13.300;2022-10-03T13:34:18;16.90;99.90
18797;DHT22;9526;52.612;13.300;2022-10-03T13:36:49;16.90;99.90
18797;DHT22;9526;52.612;13.300;2022-10-03T13:39:19;17.00;99.90
18797;DHT22;9526;52.612;13.300;2022-10-03T13:42:04;17.00;99.90
18797;DHT22;9526;52.612;13.300;2022-10-03T13:44:36;17.10;99.90
18797;DHT22;9526;52.612;13.300;2022-10-03T13:47:21;17.10;99.90
18797;DHT22;9526;52.612;13.300;2022-10-03T13:49:51;17.10;99.90
18797;DHT22;9526;52.612;13.300;2022-10-03T13:52:22;17.10;99.90
18797;DHT22;9526;52.612;13.300;2022-10-03T13:55:12;17.20;99.90
18797;DHT22;9526;52.612;13.300;2022-10-03T13:57:43;17.20;99.90
18797;DHT22;9526;52.612;13.300;2022-10-03T14:00:14;17.00;99.90
18797;DHT22;9526;52.612;13.300;2022-10-03T14:02:50;17.10;99.90
18797;DHT22;9526;52.612;13.300;2022-10-03T14:08:22;17.00;99.90
18797;DHT22;9526;52.612;13.300;2022-10-03T14:11:20;17.00;99.90
18797;DHT22;9526;52.612;13.300;2022-10-03T14:13:57;17.00;99.90
18797;DHT22;9526;52.612;13.300;2022-10-03T14:16:29;17.00;99.90
18797;DHT22;9526;52.612;13.300;2022-10-03T14:19:02;16.90;99.90
18797;DHT22;9526;52.612;13.300;2022-10-03T14:21:59;16.90;99.90
18797;DHT22;9526;52.612;13.300;2022-10-03T14:24:47;16.90;99.90
18797;DHT22;9526;52.612;13.300;2022-10-03T14:27:35;16.80;99.90
18797;DHT22;9526;52.612;13.300;2022-10-03T14:30:05;16.90;99.90
18797;DHT22;9526;52.612;13.300;2022-10-03T14:32:42;16.90;99.90
18797;DHT22;9526;52.612;13.300;2022-10-03T14:35:22;16.90;99.90
18797;DHT22;9526;52.612;13.300;2022-10-03T14:37:59;16.80;99.90
18797;DHT22;9526;52.612;13.300;2022-10-03T14:40:35;16.70;99.90
18797;DHT22;9526;52.612;13.300;2022-10-03T14:43:19;16.70;99.90
18797;DHT22;9526;52.612;13.300;2022-10-03T14:45:56;16.70;99.90
18797;DHT22;9526;52.612;13.300;2022-10-03T14:48:23;16.80;99.90
18797;DHT22;9526;52.612;13.300;2022-10-03T14:50:56;16.70;99.90
18797;DHT22;9526;52.612;13.300;2022-10-03T14:53:27;16.70;99.90
18797;DHT22;9526;52.612;13.300;2022-10-03T14:55:57;16.70;99.90
18797;DHT22;9526;52.612;13.300;2022-10-03T14:58:25;16.70;99.90
18797;DHT22;9526;52.612;13.300;2022-10-03T15:01:01;16.80;99.90
18797;DHT22;9526;52.612;13.300;2022-10-03T15:03:31;16.80;99.90
18797;DHT22;9526;52.612;13.300;2022-10-03T15:08:57;16.80;99.90
18797;DHT22;9526;52.612;13.300;2022-10-03T15:11:26;16.90;99.90
18797;DHT22;9526;52.612;13.300;2022-10-03T15:13:54;16.80;99.90
18797;DHT22;9526;52.612;13.300;2022-10-03T15:16:21;16.80;99.90
18797;DHT22;9526;52.612;13.300;2022-10-03T15:18:51;16.80;99.90
18797;DHT22;9526;52.612;13.300;2022-10-03T15:21:18;16.80;99.90
18797;DHT22;9526;52.612;13.300;2022-10-03T15:23:44;16.70;99.90
18797;DHT22;9526;52.612;13.300;2022-10-03T15:26:14;16.70;99.90
18797;DHT22;9526;52.612;13.300;2022-10-03T15:28:43;16.60;99.90
18797;DHT22;9526;52.612;13.300;2022-10-03T15:31:11;16.60;99.90
18797;DHT22;9526;52.612;13.300;2022-10-03T15:33:37;16.50;99.90
18797;DHT22;9526;52.612;13.300;2022-10-03T15:36:07;16.50;99.90
18797;DHT22;9526;52.612;13.300;2022-10-03T15:38:37;16.40;99.90
18797;DHT22;9526;52.612;13.300;2022-10-03T15:41:11;16.40;99.90
18797;DHT22;9526;52.612;13.300;2022-10-03T15:43:43;16.40;99.90
18797;DHT22;9526;52.612;13.300;2022-10-03T15:46:13;16.30;99.90
18797;DHT22;9526;52.612;13.300;2022-10-03T15:48:52;16.30;99.90
18797;DHT22;9526;52.612;13.300;2022-10-03T15:51:17;16.20;99.90
18797;DHT22;9526;52.612;13.300;2022-10-03T15:53:47;16.20;99.90
18797;DHT22;9526;52.612;13.300;2022-10-03T15:56:14;16.20;99.90
18797;DHT22;9526;52.612;13.300;2022-10-03T15:58:44;16.10;99.90
18797;DHT22;9526;52.612;13.300;2022-10-03T16:01:13;16.20;99.90
18797;DHT22;9526;52.612;13.300;2022-10-03T16:03:43;16.10;99.90
18797;DHT22;9526;52.612;13.300;2022-10-03T16:06:11;16.10;99.90
18797;DHT22;9526;52.612;13.300;2022-10-03T16:08:51;16.00;99.90
18797;DHT22;9526;52.612;13.300;2022-10-03T16:11:21;16.00;99.90
18797;DHT22;9526;52.612;13.300;2022-10-03T16:13:53;15.90;99.90
18797;DHT22;9526;52.612;13.300;2022-10-03T16:16:29;15.90;99.90
18797;DHT22;9526;52.612;13.300;2022-10-03T16:19:14;15.90;99.90
18797;DHT22;9526;52.612;13.300;2022-10-03T16:21:46;15.80;99.90
18797;DHT22;9526;52.612;13.300;2022-10-03T16:24:22;15.80;99.90
18797;DHT22;9526;52.612;13.300;2022-10-03T16:26:54;15.80;99.90
18797;DHT22;9526;52.612;13.300;2022-10-03T16:29:24;15.70;99.90
18797;DHT22;9526;52.612;13.300;2022-10-03T16:31:53;15.90;99.90
18797;DHT22;9526;52.612;13.300;2022-10-03T16:34:19;15.70;99.90
18797;DHT22;9526;52.612;13.300;2022-10-03T16:36:47;15.70;99.90
18797;DHT22;9526;52.612;13.300;2022-10-03T16:39:19;15.60;99.90
18797;DHT22;9526;52.612;13.300;2022-10-03T16:41:44;15.60;99.90
18797;DHT22;9526;52.612;13.300;2022-10-03T16:44:23;15.50;99.90
18797;DHT22;9526;52.612;13.300;2022-10-03T16:46:48;15.50;99.90
18797;DHT22;9526;52.612;13.300;2022-10-03T16:49:28;15.50;99.90
18797;DHT22;9526;52.612;13.300;2022-10-03T16:52:16;15.40;99.90
18797;DHT22;9526;52.612;13.300;2022-10-03T16:54:43;15.30;99.90
18797;DHT22;9526;52.612;13.300;2022-10-03T16:57:12;15.30;99.90
18797;DHT22;9526;52.612;13.300;2022-10-03T16:59:38;15.30;99.90
18797;DHT22;9526;52.612;13.300;2022-10-03T17:02:08;15.30;99.90
18797;DHT22;9526;52.612;13.300;2022-10-03T17:04:36;15.20;99.90
18797;DHT22;9526;52.612;13.300;2022-10-03T17:07:03;15.10;99.90
18797;DHT22;9526;52.612;13.300;2022-10-03T17:09:36;15.10;99.90
18797;DHT22;9526;52.612;13.300;2022-10-03T17:12:07;15.10;99.90
18797;DHT22;9526;52.612;13.300;2022-10-03T17:14:38;15.00;99.90
18797;DHT22;9526;52.612;13.300;2022-10-03T17:17:06;15.00;99.90
18797;DHT22;9526;52.612;13.300;2022-10-03T17:19:38;15.00;99.90
18797;DHT22;9526;52.612;13.300;2022-10-03T17:22:09;14.90;99.90
18797;DHT22;9526;52.612;13.300;2022-10-03T17:24:42;14.90;99.90
18797;DHT22;9526;52.612;13.300;2022-10-03T17:27:19;14.80;99.90
18797;DHT22;9526;52.612;13.300;2022-10-03T17:29:48;14.80;99.90
18797;DHT22;9526;52.612;13.300;2022-10-03T17:32:21;14.80;99.90
18797;DHT22;9526;52.612;13.300;2022-10-03T17:34:51;14.70;99.90
18797;DHT22;9526;52.612;13.300;2022-10-03T17:37:42;14.70;99.90
18797;DHT22;9526;52.612;13.300;2022-10-03T17:40:50;14.60;99.90
18797;DHT22;9526;52.612;13.300;2022-10-03T17:43:33;14.60;99.90
18797;DHT22;9526;52.612;13.300;2022-10-03T17:46:03;14.50;99.90
18797;DHT22;9526;52.612;13.300;2022-10-03T17:48:36;14.50;99.90
18797;DHT22;9526;52.612;13.300;2022-10-03T17:51:25;14.50;99.90
18797;DHT22;9526;52.612;13.300;2022-10-03T17:53:53;14.50;99.90
18797;DHT22;9526;52.612;13.300;2022-10-03T17:56:20;14.40;99.90
18797;DHT22;9526;52.612;13.300;2022-10-03T17:58:49;14.40;99.90
18797;DHT22;9526;52.612;13.300;2022-10-03T18:01:16;14.40;99.90
18797;DHT22;9526;52.612;13.300;2022-10-03T18:03:46;14.40;99.90
18797;DHT22;9526;52.612;13.300;2022-10-03T18:06:34;14.40;99.90
18797;DHT22;9526;52.612;13.300;2022-10-03T18:09:07;14.40;99.90
18797;DHT22;9526;52.612;13.300;2022-10-03T18:11:33;14.40;99.90
18797;DHT22;9526;52.612;13.300;2022-10-03T18:14:07;14.30;99.90
18797;DHT22;9526;52.612;13.300;2022-10-03T18:16:36;14.40;99.90
18797;DHT22;9526;52.612;13.300;2022-10-03T18:19:21;14.40;99.90
18797;DHT22;9526;52.612;13.300;2022-10-03T18:21:57;14.40;99.90
18797;DHT22;9526;52.612;13.300;2022-10-03T18:24:36;14.40;99.90
18797;DHT22;9526;52.612;13.300;2022-10-03T18:30:33;14.40;99.90
18797;DHT22;9526;52.612;13.300;2022-10-03T18:33:10;14.40;99.90
18797;DHT22;9526;52.612;13.300;2022-10-03T18:35:36;14.30;99.90
18797;DHT22;9526;52.612;13.300;2022-10-03T18:38:11;14.20;99.90
18797;DHT22;9526;52.612;13.300;2022-10-03T18:40:40;14.20;99.90
18797;DHT22;9526;52.612;13.300;2022-10-03T18:43:05;14.20;99.90
18797;DHT22;9526;52.612;13.300;2022-10-03T18:45:32;14.10;99.90
18797;DHT22;9526;52.612;13.300;2022-10-03T18:48:08;14.10;99.90
18797;DHT22;9526;52.612;13.300;2022-10-03T18:50:43;14.10;99.90
18797;DHT22;9526;52.612;13.300;2022-10-03T18:53:19;14.00;99.90
18797;DHT22;9526;52.612;13.300;2022-10-03T18:55:55;14.00;99.90
18797;DHT22;9526;52.612;13.300;2022-10-03T18:58:23;14.00;99.90
18797;DHT22;9526;52.612;13.300;2022-10-03T19:00:55;14.00;99.90
18797;DHT22;9526;52.612;13.300;2022-10-03T19:03:25;14.00;99.90
18797;DHT22;9526;52.612;13.300;2022-10-03T19:05:57;14.00;99.90
18797;DHT22;9526;52.612;13.300;2022-10-03T19:08:26;13.90;99.90
18797;DHT22;9526;52.612;13.300;2022-10-03T19:10:53;13.90;99.90
18797;DHT22;9526;52.612;13.300;2022-10-03T19:13:27;13.90;99.90
18797;DHT22;9526;52.612;13.300;2022-10-03T19:16:13;13.90;99.90
18797;DHT22;9526;52.612;13.300;2022-10-03T19:18:43;13.90;99.90
18797;DHT22;9526;52.612;13.300;2022-10-03T19:21:14;13.90;99.90
18797;DHT22;9526;52.612;13.300;2022-10-03T19:23:44;13.90;99.90
18797;DHT22;9526;52.612;13.300;2022-10-03T19:26:17;13.90;99.90
18797;DHT22;9526;52.612;13.300;2022-10-03T19:28:46;13.80;99.90
18797;DHT22;9526;52.612;13.300;2022-10-03T19:31:16;13.80;99.90
18797;DHT22;9526;52.612;13.300;2022-10-03T19:33:45;13.70;99.90
18797;DHT22;9526;52.612;13.300;2022-10-03T19:36:14;13.70;99.90
18797;DHT22;9526;52.612;13.300;2022-10-03T19:38:41;13.70;99.90
18797;DHT22;9526;52.612;13.300;2022-10-03T19:41:14;13.70;99.90
18797;DHT22;9526;52.612;13.300;2022-10-03T19:43:49;13.70;99.90
18797;DHT22;9526;52.612;13.300;2022-10-03T19:46:32;13.70;99.90
18797;DHT22;9526;52.612;13.300;2022-10-03T19:49:31;13.60;99.90
18797;DHT22;9526;52.612;13.300;2022-10-03T19:52:15;13.60;99.90
18797;DHT22;9526;52.612;13.300;2022-10-03T19:54:48;13.60;99.90
18797;DHT22;9526;52.612;13.300;2022-10-03T19:57:15;13.60;99.90